Los Angeles, California
Traffic Map
Current Weather Conditions
Los Angeles, California
Clear
Clear
18°
Feels Like: 18°
Wind Chill: 18° Ceiling: Unl
Heat Index: 18° Visibility: 10mi
Dew Point: 15° Wind: 0mph
Humidity: 84% Direction: ° ()
Pressure: 29.89in Gusts: 0mph
Raw Report DataKCQT 021147Z AUTO 00000KT 10SM CLR 18/15 A2989 RMK AO2 SLP118 T01780150 10194 20178 53004
Traffic Incident Summary
Active as of:
Severity:
Category:
InformationThere was an issue retrieving the traffic information for this location. Please try a different location or try again shortly.
Advertisements
Track Severe Weather on mobile